Time;durP1;ratioP1;P1;durP2;ratioP2;P2;SDS_P1;SDS_P2;PMS_P1;PMS_P2;Temp;Humidity;BMP_temperature;BMP_pressure;BME280_temperature;BME280_humidity;BME280_pressure;Samples;Min_cycle;Max_cycle;Signal;HPM_P1;HPM_P2
2021/11/05 00:00:21;;;;;;;6.28;0.50;;;6.60;99.90;;;;;;5021350;28;20083;-63
2021/11/05 00:02:47;;;;;;;1.23;0.47;;;6.60;99.90;;;;;;5038537;28;20037;-62
2021/11/05 00:05:13;;;;;;;2.08;0.55;;;6.60;99.90;;;;;;5038835;28;20091;-63
2021/11/05 00:07:39;;;;;;;3.47;0.57;;;6.60;99.90;;;;;;5021655;28;20112;-62
2021/11/05 00:10:06;;;;;;;1.88;0.50;;;6.60;99.90;;;;;;5036675;28;20248;-63
2021/11/05 00:12:31;;;;;;;1.45;0.50;;;6.50;99.90;;;;;;5039559;28;20502;-65
2021/11/05 00:14:57;;;;;;;6.32;1.05;;;6.60;99.90;;;;;;5019609;28;20033;-64
2021/11/05 00:17:22;;;;;;;4.20;0.70;;;6.60;99.90;;;;;;5039750;28;20040;-63
2021/11/05 00:19:48;;;;;;;1.60;0.43;;;6.60;99.90;;;;;;5037039;28;20033;-63
2021/11/05 00:22:14;;;;;;;0.82;0.50;;;6.50;99.90;;;;;;5039267;28;20041;-63
2021/11/05 00:24:39;;;;;;;2.45;0.70;;;6.50;99.90;;;;;;5039903;28;20049;-64
2021/11/05 00:27:05;;;;;;;1.98;0.45;;;6.50;99.90;;;;;;5040388;28;20049;-63
2021/11/05 00:29:30;;;;;;;1.90;0.47;;;6.50;99.90;;;;;;5036635;28;20034;-63
2021/11/05 00:31:56;;;;;;;3.53;0.73;;;6.50;99.90;;;;;;5040073;28;20130;-63
2021/11/05 00:34:22;;;;;;;1.27;0.47;;;6.50;99.90;;;;;;5037372;28;20144;-63
2021/11/05 00:36:48;;;;;;;5.47;0.77;;;6.40;99.90;;;;;;5038698;28;20026;-65
2021/11/05 00:39:15;;;;;;;9.15;1.10;;;6.50;99.90;;;;;;5038080;28;20033;-63
2021/11/05 00:41:41;;;;;;;6.40;0.82;;;6.50;99.90;;;;;;5019545;28;20124;-63
2021/11/05 00:44:06;;;;;;;3.10;0.77;;;6.50;99.90;;;;;;5039954;28;20211;-64
2021/11/05 00:46:32;;;;;;;1.33;0.52;;;6.40;99.90;;;;;;5036080;28;20038;-63
2021/11/05 00:49:00;;;;;;;5.57;0.80;;;6.40;99.90;;;;;;5041949;28;20045;-62
2021/11/05 00:51:26;;;;;;;5.78;0.73;;;6.40;99.90;;;;;;5039730;28;20109;-64
2021/11/05 00:53:51;;;;;;;5.35;1.00;;;6.30;99.90;;;;;;5036931;28;20220;-64
2021/11/05 00:56:17;;;;;;;5.47;0.70;;;6.30;99.90;;;;;;5021132;28;20060;-65
2021/11/05 00:58:42;;;;;;;3.53;0.55;;;6.30;99.90;;;;;;5037710;28;20033;-62
2021/11/05 01:01:08;;;;;;;1.55;0.52;;;6.30;99.90;;;;;;5037863;28;20056;-63
2021/11/05 01:03:34;;;;;;;2.83;0.60;;;6.30;99.90;;;;;;5038731;28;20087;-63
2021/11/05 01:05:59;;;;;;;1.23;0.60;;;6.20;99.90;;;;;;5036031;28;20060;-63
2021/11/05 01:08:25;;;;;;;2.45;0.80;;;6.20;99.90;;;;;;5039301;28;20119;-64
2021/11/05 01:10:52;;;;;;;1.92;0.57;;;6.20;99.90;;;;;;5036820;28;20037;-63
2021/11/05 01:13:18;;;;;;;10.50;1.75;;;6.20;99.90;;;;;;5038819;28;20052;-64
2021/11/05 01:15:43;;;;;;;5.07;0.50;;;6.20;99.90;;;;;;5037200;28;20029;-62
2021/11/05 01:18:09;;;;;;;4.43;0.68;;;6.20;99.90;;;;;;5037227;28;20046;-64
2021/11/05 01:20:35;;;;;;;7.25;0.75;;;6.20;99.90;;;;;;5020066;28;20152;-63
2021/11/05 01:23:00;;;;;;;4.18;0.43;;;6.20;99.90;;;;;;5040803;28;20139;-64
2021/11/05 01:25:26;;;;;;;3.13;1.17;;;6.10;99.90;;;;;;5036048;28;20112;-64
2021/11/05 01:27:51;;;;;;;2.10;0.57;;;6.10;99.90;;;;;;5038792;28;20124;-63
2021/11/05 01:30:18;;;;;;;2.28;0.40;;;6.20;99.90;;;;;;5037255;28;20033;-62
2021/11/05 01:32:46;;;;;;;1.92;0.28;;;6.20;99.90;;;;;;5037345;28;20045;-62
2021/11/05 01:35:12;;;;;;;4.32;0.40;;;6.30;99.90;;;;;;5037868;28;20079;-63
2021/11/05 01:37:38;;;;;;;3.53;0.45;;;6.30;99.90;;;;;;5035480;28;20042;-63
2021/11/05 01:40:05;;;;;;;2.97;0.93;;;6.30;99.90;;;;;;5036898;28;20049;-63
2021/11/05 01:42:33;;;;;;;2.85;0.20;;;6.40;99.90;;;;;;5038631;28;20487;-63
2021/11/05 01:44:59;;;;;;;3.88;0.50;;;6.50;99.90;;;;;;5018761;28;20033;-64
2021/11/05 01:47:25;;;;;;;3.45;0.30;;;6.50;99.90;;;;;;5036094;28;20116;-66
2021/11/05 01:49:50;;;;;;;5.85;0.73;;;6.50;99.90;;;;;;5040763;28;20040;-64
2021/11/05 01:52:17;;;;;;;2.33;0.20;;;6.50;99.90;;;;;;5038290;28;20416;-63
2021/11/05 01:54:43;;;;;;;2.08;0.30;;;6.50;99.90;;;;;;5036383;28;20036;-63
2021/11/05 01:57:09;;;;;;;3.78;0.30;;;6.50;99.90;;;;;;5037475;28;20034;-64
2021/11/05 01:59:36;;;;;;;6.60;0.70;;;6.40;99.90;;;;;;5034138;28;20373;-65
2021/11/05 02:02:07;;;;;;;2.10;0.28;;;6.40;99.90;;;;;;5038332;28;20033;-63
2021/11/05 02:04:33;;;;;;;3.25;1.00;;;6.40;99.90;;;;;;5038833;28;20079;-65
2021/11/05 02:06:59;;;;;;;18.65;0.60;;;6.30;99.90;;;;;;5038714;28;20025;-63
2021/11/05 02:09:27;;;;;;;4.90;0.30;;;6.30;99.90;;;;;;5034472;28;20026;-63
2021/11/05 02:11:57;;;;;;;1.88;0.32;;;6.30;99.90;;;;;;5024779;28;20044;-64
2021/11/05 02:14:24;;;;;;;1.60;0.30;;;6.30;99.90;;;;;;5038596;28;20125;-69
2021/11/05 02:16:53;;;;;;;6.40;0.77;;;6.30;99.90;;;;;;5016291;28;20048;-64
2021/11/05 02:19:21;;;;;;;3.53;0.40;;;6.30;99.90;;;;;;5038077;28;20517;-62
2021/11/05 02:21:50;;;;;;;2.15;0.25;;;6.30;99.90;;;;;;5034642;28;20057;-63
2021/11/05 02:24:18;;;;;;;3.60;0.30;;;6.30;99.90;;;;;;5035323;28;20037;-63
2021/11/05 02:26:44;;;;;;;0.93;0.32;;;6.30;99.90;;;;;;5036630;28;20079;-63
2021/11/05 02:29:11;;;;;;;5.53;0.40;;;6.30;99.90;;;;;;5036122;28;20511;-64
2021/11/05 02:31:37;;;;;;;2.08;0.52;;;6.30;99.90;;;;;;5017599;28;20116;-64
2021/11/05 02:34:03;;;;;;;3.45;0.43;;;6.20;99.90;;;;;;5037206;28;20447;-64
2021/11/05 02:36:29;;;;;;;2.28;0.40;;;6.20;99.90;;;;;;5035171;28;20033;-63
2021/11/05 02:38:56;;;;;;;4.07;0.20;;;6.10;99.90;;;;;;5037644;28;20445;-63
2021/11/05 02:41:21;;;;;;;1.58;0.50;;;6.10;99.90;;;;;;5038790;28;20059;-64
2021/11/05 02:43:48;;;;;;;2.90;0.40;;;6.10;99.90;;;;;;5033690;28;20532;-63
2021/11/05 02:46:14;;;;;;;3.90;1.15;;;6.00;99.90;;;;;;5037510;28;20052;-64
2021/11/05 02:48:40;;;;;;;6.65;1.27;;;6.00;99.90;;;;;;5034753;28;20513;-65
2021/11/05 02:51:06;;;;;;;4.28;0.35;;;5.90;99.90;;;;;;5036393;28;20030;-62
2021/11/05 02:53:32;;;;;;;3.08;0.30;;;5.90;99.90;;;;;;5018885;28;20083;-64
2021/11/05 02:55:58;;;;;;;4.60;0.40;;;5.90;99.90;;;;;;5035043;28;20053;-63
2021/11/05 02:58:23;;;;;;;2.50;0.80;;;5.90;99.90;;;;;;5037612;28;20043;-63
2021/11/05 03:00:50;;;;;;;5.80;0.70;;;5.80;99.90;;;;;;5037750;28;20146;-64
2021/11/05 03:03:17;;;;;;;4.25;0.98;;;5.80;99.90;;;;;;5035048;28;20040;-64
2021/11/05 03:05:43;;;;;;;5.00;0.65;;;5.80;99.90;;;;;;5036406;28;23036;-62
2021/11/05 03:08:10;;;;;;;2.95;0.90;;;5.70;99.90;;;;;;5037059;28;20409;-63
2021/11/05 03:10:36;;;;;;;2.28;0.55;;;5.70;99.90;;;;;;5037317;28;20026;-63
2021/11/05 03:13:03;;;;;;;3.53;0.77;;;5.60;99.90;;;;;;5036767;28;20051;-62
2021/11/05 03:15:29;;;;;;;5.63;0.68;;;5.60;99.90;;;;;;5034560;28;20124;-64
2021/11/05 03:17:56;;;;;;;2.28;0.75;;;5.50;99.90;;;;;;5037405;28;20687;-63
2021/11/05 03:20:22;;;;;;;4.90;0.73;;;5.50;99.90;;;;;;5034346;28;20041;-64
2021/11/05 03:22:47;;;;;;;2.67;0.65;;;5.50;99.90;;;;;;5040508;28;20026;-62
2021/11/05 03:25:14;;;;;;;2.38;0.75;;;5.50;99.90;;;;;;5037882;28;20568;-62
2021/11/05 03:27:40;;;;;;;1.60;0.55;;;5.50;99.90;;;;;;5034534;28;20025;-64
2021/11/05 03:30:09;;;;;;;2.13;0.57;;;5.40;99.90;;;;;;5036208;28;20102;-64
2021/11/05 03:32:36;;;;;;;6.93;1.30;;;5.40;99.90;;;;;;5035254;28;20128;-63
2021/11/05 03:35:03;;;;;;;1.33;0.50;;;5.40;99.90;;;;;;5035664;28;20049;-63
2021/11/05 03:37:29;;;;;;;3.65;0.32;;;5.40;99.90;;;;;;5036512;28;20033;-64
2021/11/05 03:39:54;;;;;;;2.38;0.57;;;5.30;99.90;;;;;;5034043;28;20052;-64
2021/11/05 03:42:20;;;;;;;4.60;0.57;;;5.20;99.90;;;;;;5037875;28;20191;-63
2021/11/05 03:44:45;;;;;;;3.03;0.60;;;5.20;99.90;;;;;;5033547;28;20033;-63
2021/11/05 03:47:11;;;;;;;1.40;0.30;;;5.20;99.90;;;;;;5037065;28;20124;-63
2021/11/05 03:49:37;;;;;;;2.05;0.77;;;5.20;99.90;;;;;;5036178;28;20512;-63
2021/11/05 03:52:02;;;;;;;0.85;0.30;;;5.20;99.90;;;;;;5035375;28;20033;-63
2021/11/05 03:54:28;;;;;;;1.88;0.73;;;5.20;99.90;;;;;;5035219;28;20422;-65
2021/11/05 03:56:54;;;;;;;1.38;0.43;;;5.10;99.90;;;;;;5040256;28;20025;-62
2021/11/05 03:59:19;;;;;;;3.13;0.50;;;5.10;99.90;;;;;;5019916;28;20120;-62
2021/11/05 04:01:45;;;;;;;1.80;0.45;;;5.10;99.90;;;;;;5040358;28;20516;-64
2021/11/05 04:04:13;;;;;;;0.88;0.30;;;5.10;99.90;;;;;;5038365;28;20036;-63
2021/11/05 04:06:39;;;;;;;1.88;0.43;;;5.10;99.90;;;;;;5037063;28;20029;-63
2021/11/05 04:09:04;;;;;;;2.28;0.40;;;5.10;99.90;;;;;;5042477;28;20035;-64
2021/11/05 04:11:30;;;;;;;6.10;0.65;;;5.10;99.90;;;;;;5036420;28;20052;-63
2021/11/05 04:13:56;;;;;;;5.78;0.85;;;5.10;99.90;;;;;;5039930;28;20400;-63
2021/11/05 04:16:21;;;;;;;2.90;0.63;;;5.10;99.90;;;;;;5037963;28;20029;-64
2021/11/05 04:18:47;;;;;;;0.68;0.15;;;5.00;99.90;;;;;;5039930;28;20037;-64
2021/11/05 04:21:12;;;;;;;1.60;0.50;;;5.00;99.90;;;;;;5037490;28;20026;-62
2021/11/05 04:23:38;;;;;;;10.25;1.50;;;5.00;99.90;;;;;;5043753;28;20052;-62
2021/11/05 04:26:05;;;;;;;1.33;0.25;;;5.00;99.90;;;;;;5041334;28;20037;-64
2021/11/05 04:28:30;;;;;;;0.93;0.30;;;5.00;99.90;;;;;;5040856;28;20033;-63
2021/11/05 04:30:56;;;;;;;19.90;1.58;;;4.90;99.90;;;;;;5020272;28;20049;-64
2021/11/05 04:33:22;;;;;;;0.55;0.22;;;4.90;99.90;;;;;;5040306;28;20048;-64
2021/11/05 04:35:48;;;;;;;1.95;0.52;;;4.90;99.90;;;;;;5036452;28;20029;-63
2021/11/05 04:38:14;;;;;;;1.83;0.65;;;4.90;99.90;;;;;;5040769;28;20036;-64
2021/11/05 04:40:40;;;;;;;4.85;0.25;;;4.90;99.90;;;;;;5040532;28;20240;-64
2021/11/05 04:43:06;;;;;;;7.82;0.50;;;4.90;99.90;;;;;;5037121;28;20044;-63
2021/11/05 04:45:32;;;;;;;4.72;0.50;;;4.90;99.90;;;;;;5038566;28;20025;-63
2021/11/05 04:47:58;;;;;;;2.25;0.40;;;4.90;99.90;;;;;;5038466;28;20045;-64
2021/11/05 04:50:23;;;;;;;3.10;0.30;;;4.90;99.90;;;;;;5036969;28;20068;-67
2021/11/05 04:52:49;;;;;;;1.10;0.30;;;4.90;99.90;;;;;;5036946;28;20056;-62
2021/11/05 04:55:18;;;;;;;1.85;0.85;;;4.80;99.90;;;;;;5040256;28;20215;-62
2021/11/05 04:57:44;;;;;;;2.08;0.65;;;4.80;99.90;;;;;;5039880;28;20036;-63
2021/11/05 05:00:11;;;;;;;4.22;1.23;;;4.80;99.90;;;;;;5037102;28;20056;-63
2021/11/05 05:02:37;;;;;;;5.43;1.48;;;4.80;99.90;;;;;;5038735;28;20033;-63
2021/11/05 05:05:04;;;;;;;8.75;1.00;;;4.80;99.90;;;;;;5038015;28;20036;-64
2021/11/05 05:07:29;;;;;;;2.15;0.80;;;4.80;99.90;;;;;;5039651;28;20397;-63
2021/11/05 05:09:55;;;;;;;3.90;0.88;;;4.80;99.90;;;;;;5035783;28;20056;-64
2021/11/05 05:12:21;;;;;;;3.60;0.50;;;4.70;99.90;;;;;;5019681;28;20073;-63
2021/11/05 05:14:46;;;;;;;2.88;0.40;;;4.70;99.90;;;;;;5039536;28;20037;-64
2021/11/05 05:17:12;;;;;;;2.55;0.30;;;4.70;99.90;;;;;;5037236;28;20085;-63
2021/11/05 05:19:38;;;;;;;2.22;0.85;;;4.70;99.90;;;;;;5039418;28;20456;-64
2021/11/05 05:22:04;;;;;;;0.63;0.40;;;4.70;99.90;;;;;;5038319;28;20565;-63
2021/11/05 05:24:30;;;;;;;2.20;0.50;;;4.70;99.90;;;;;;5041459;28;20039;-64
2021/11/05 05:26:55;;;;;;;4.57;0.47;;;4.70;99.90;;;;;;5037502;28;20026;-63
2021/11/05 05:29:22;;;;;;;2.30;0.40;;;4.60;99.90;;;;;;5038856;28;20040;-63
2021/11/05 05:31:48;;;;;;;2.80;0.52;;;4.60;99.90;;;;;;5035882;28;20036;-64
2021/11/05 05:34:13;;;;;;;2.22;0.40;;;4.60;99.90;;;;;;5039633;28;20045;-64
2021/11/05 05:36:39;;;;;;;1.48;0.52;;;4.60;99.90;;;;;;5035366;28;20039;-62
2021/11/05 05:39:04;;;;;;;1.27;0.35;;;4.70;99.90;;;;;;5038490;28;20057;-64
2021/11/05 05:41:30;;;;;;;2.45;0.70;;;4.70;99.90;;;;;;5037061;28;20075;-63
2021/11/05 05:43:56;;;;;;;1.00;0.30;;;4.70;99.90;;;;;;5037304;28;20080;-63
2021/11/05 05:46:21;;;;;;;2.97;0.52;;;4.80;99.90;;;;;;5038654;28;20108;-63
2021/11/05 05:48:47;;;;;;;4.93;0.82;;;4.80;99.90;;;;;;5021544;28;20037;-63
2021/11/05 05:51:12;;;;;;;2.25;0.43;;;4.90;99.90;;;;;;5043711;28;20029;-63
2021/11/05 05:53:38;;;;;;;2.50;0.30;;;4.90;99.90;;;;;;5034720;28;20046;-62
2021/11/05 05:56:06;;;;;;;4.75;0.47;;;4.80;99.90;;;;;;5038628;28;20604;-63
2021/11/05 05:58:32;;;;;;;4.00;0.68;;;4.90;99.90;;;;;;5035897;28;20037;-63
2021/11/05 06:00:57;;;;;;;5.95;0.40;;;4.80;99.90;;;;;;5037368;28;20038;-63
2021/11/05 06:03:23;;;;;;;1.00;0.30;;;4.80;99.90;;;;;;5037533;28;20044;-64
2021/11/05 06:05:49;;;;;;;4.95;0.85;;;4.80;99.90;;;;;;5034905;28;20524;-63
2021/11/05 06:08:14;;;;;;;1.80;0.38;;;4.80;99.90;;;;;;5035429;28;20037;-63
2021/11/05 06:10:40;;;;;;;4.75;0.50;;;4.90;99.90;;;;;;5038165;28;20033;-65
2021/11/05 06:13:06;;;;;;;2.60;0.50;;;4.90;99.90;;;;;;5035795;28;20397;-62
2021/11/05 06:15:31;;;;;;;2.35;0.52;;;4.90;99.90;;;;;;5038151;28;20034;-66
2021/11/05 06:17:57;;;;;;;1.38;0.40;;;5.00;99.90;;;;;;5035534;28;20428;-64
2021/11/05 06:20:23;;;;;;;6.07;1.30;;;5.10;99.90;;;;;;5036613;28;20566;-64
2021/11/05 06:22:49;;;;;;;3.88;1.52;;;5.20;99.90;;;;;;5034222;28;20029;-63
2021/11/05 06:25:14;;;;;;;1.42;0.30;;;5.20;99.90;;;;;;5035629;28;20037;-64
2021/11/05 06:27:40;;;;;;;4.28;0.50;;;5.30;99.90;;;;;;5019816;28;20522;-64
2021/11/05 06:30:07;;;;;;;2.95;0.80;;;5.30;99.90;;;;;;5035317;28;20528;-64
2021/11/05 06:32:34;;;;;;;7.95;0.57;;;5.30;99.90;;;;;;5037746;28;20039;-63
2021/11/05 06:35:00;;;;;;;2.05;0.52;;;5.40;99.90;;;;;;5035923;28;20041;-63
2021/11/05 06:37:25;;;;;;;2.13;0.63;;;5.40;99.90;;;;;;5036596;28;20377;-61
2021/11/05 06:39:51;;;;;;;1.20;0.70;;;5.50;99.90;;;;;;5037964;28;20112;-62
2021/11/05 06:42:21;;;;;;;2.72;0.60;;;5.50;99.90;;;;;;5039103;28;20028;-61
2021/11/05 06:44:51;;;;;;;1.15;0.50;;;5.50;99.90;;;;;;5034762;28;20123;-63
2021/11/05 06:47:17;;;;;;;2.53;0.47;;;5.50;99.90;;;;;;5037565;28;20492;-63
2021/11/05 06:49:43;;;;;;;3.10;0.52;;;5.40;99.90;;;;;;5041323;28;20029;-63
2021/11/05 06:52:09;;;;;;;2.00;0.43;;;5.40;99.90;;;;;;5035281;28;20029;-63
2021/11/05 06:54:38;;;;;;;11.57;0.82;;;5.30;99.90;;;;;;5033460;28;20060;-62
2021/11/05 06:57:04;;;;;;;2.10;0.70;;;5.30;99.90;;;;;;5040000;28;20674;-62
2021/11/05 06:59:30;;;;;;;2.95;0.60;;;5.30;99.90;;;;;;5037094;28;20124;-63
2021/11/05 07:01:55;;;;;;;2.35;0.73;;;5.20;99.90;;;;;;5041172;28;20385;-62
2021/11/05 07:04:21;;;;;;;1.85;0.60;;;5.20;99.90;;;;;;5035762;28;20116;-62
2021/11/05 07:06:47;;;;;;;4.00;0.80;;;5.20;99.90;;;;;;5021122;28;20037;-62
2021/11/05 07:09:14;;;;;;;3.65;0.63;;;5.20;99.90;;;;;;5018490;28;20021;-62
2021/11/05 07:11:40;;;;;;;2.60;1.15;;;5.10;99.90;;;;;;5033294;28;20026;-61
2021/11/05 07:14:07;;;;;;;1.50;0.47;;;5.20;99.90;;;;;;5035505;28;20053;-62
2021/11/05 07:16:33;;;;;;;3.67;0.80;;;5.10;99.90;;;;;;5033952;28;20036;-63
2021/11/05 07:18:59;;;;;;;3.58;1.20;;;5.10;99.90;;;;;;5033020;28;20041;-61
2021/11/05 07:21:26;;;;;;;2.42;1.25;;;5.10;99.90;;;;;;5037273;28;20033;-63
2021/11/05 07:24:00;;;;;;;7.05;1.30;;;5.20;99.90;;;;;;5037959;28;20481;-62
2021/11/05 07:26:28;;;;;;;2.83;0.65;;;5.20;99.90;;;;;;5037510;28;20041;-63
2021/11/05 07:28:53;;;;;;;5.28;1.83;;;5.20;99.90;;;;;;5036006;28;22165;-61
2021/11/05 07:31:19;;;;;;;3.65;0.82;;;5.30;99.90;;;;;;5039811;28;20517;-63
2021/11/05 07:33:44;;;;;;;3.10;1.10;;;5.40;99.90;;;;;;5038425;28;20120;-62
2021/11/05 07:36:10;;;;;;;6.53;1.38;;;5.60;99.90;;;;;;5040629;28;20029;-62
2021/11/05 07:38:36;;;;;;;8.20;1.77;;;5.80;99.90;;;;;;5038377;28;20116;-63
2021/11/05 07:41:01;;;;;;;11.13;1.17;;;5.90;99.90;;;;;;5041889;28;20100;-62
2021/11/05 07:43:27;;;;;;;6.72;1.58;;;6.00;99.90;;;;;;5037471;28;20094;-63
2021/11/05 07:45:52;;;;;;;8.23;1.90;;;6.10;99.90;;;;;;5039310;28;20040;-62
2021/11/05 07:48:18;;;;;;;7.57;2.00;;;6.10;99.90;;;;;;5039967;28;20044;-64
2021/11/05 07:50:43;;;;;;;8.00;1.65;;;6.20;99.90;;;;;;5038700;28;20447;-63
2021/11/05 07:53:09;;;;;;;4.93;0.95;;;6.20;99.90;;;;;;5042016;28;20092;-64
2021/11/05 07:55:35;;;;;;;2.05;0.93;;;6.20;99.90;;;;;;5037964;28;20533;-63
2021/11/05 07:58:00;;;;;;;4.07;1.30;;;6.20;99.90;;;;;;5046615;28;20041;-62
2021/11/05 08:00:26;;;;;;;4.20;0.93;;;6.20;99.90;;;;;;5043043;28;20033;-63
2021/11/05 08:02:51;;;;;;;7.25;1.63;;;6.30;99.90;;;;;;5027275;28;20029;-63
2021/11/05 08:05:17;;;;;;;4.70;0.95;;;6.30;99.90;;;;;;5043099;28;20037;-66
2021/11/05 08:07:43;;;;;;;1.90;0.70;;;6.30;99.90;;;;;;5037377;28;20029;-62
2021/11/05 08:10:09;;;;;;;4.10;1.33;;;6.40;99.90;;;;;;5031234;28;20052;-63
2021/11/05 08:12:37;;;;;;;1.20;0.77;;;6.40;99.90;;;;;;5026907;28;20553;-63
2021/11/05 08:15:03;;;;;;;6.50;1.30;;;6.50;99.90;;;;;;5030194;28;20041;-63
2021/11/05 08:17:29;;;;;;;8.27;1.48;;;6.60;99.90;;;;;;5017713;28;20571;-62
2021/11/05 08:19:54;;;;;;;3.50;1.08;;;6.70;99.90;;;;;;5037507;28;20139;-63
2021/11/05 08:22:20;;;;;;;3.75;0.90;;;6.80;99.90;;;;;;5037586;28;20044;-62
2021/11/05 08:24:46;;;;;;;5.80;1.02;;;6.90;99.90;;;;;;5020217;28;20045;-62
2021/11/05 08:27:13;;;;;;;4.32;1.92;;;7.00;99.90;;;;;;5040329;28;20044;-61
2021/11/05 08:29:39;;;;;;;6.13;2.03;;;7.10;99.90;;;;;;5038108;28;20036;-62
2021/11/05 08:32:05;;;;;;;5.32;1.23;;;7.20;99.90;;;;;;5036314;28;20563;-61
2021/11/05 08:34:30;;;;;;;8.40;1.38;;;7.40;99.90;;;;;;5040110;28;20053;-62
2021/11/05 08:36:56;;;;;;;4.38;1.27;;;7.50;99.90;;;;;;5040047;28;20034;-62
2021/11/05 08:39:22;;;;;;;5.93;1.10;;;7.60;99.90;;;;;;5038905;28;20033;-62
2021/11/05 08:41:48;;;;;;;6.80;1.20;;;7.80;99.90;;;;;;5038254;28;20041;-63
2021/11/05 08:44:14;;;;;;;7.32;1.42;;;7.90;99.90;;;;;;5039516;28;20043;-62
2021/11/05 08:46:40;;;;;;;5.32;1.90;;;8.00;99.90;;;;;;5039750;28;20049;-63
2021/11/05 08:49:10;;;;;;;10.20;2.03;;;8.20;99.90;;;;;;5039066;28;20141;-61
2021/11/05 08:51:37;;;;;;;4.55;1.20;;;8.30;99.90;;;;;;5036319;28;20171;-62
2021/11/05 08:54:03;;;;;;;4.55;1.23;;;8.30;99.90;;;;;;5036512;28;20765;-62
2021/11/05 08:56:29;;;;;;;3.70;0.95;;;8.50;99.90;;;;;;5039710;28;20060;-61
2021/11/05 08:58:54;;;;;;;4.47;0.88;;;8.60;99.90;;;;;;5035494;28;20116;-62
2021/11/05 09:01:20;;;;;;;4.03;0.70;;;8.70;99.90;;;;;;5037905;28;20048;-62
2021/11/05 09:03:47;;;;;;;10.70;1.77;;;8.80;99.90;;;;;;5036022;28;20033;-64
2021/11/05 09:06:13;;;;;;;16.08;1.58;;;8.90;99.90;;;;;;5037261;28;20056;-61
2021/11/05 09:08:38;;;;;;;12.23;2.22;;;9.00;99.90;;;;;;5035467;28;20515;-63
2021/11/05 09:11:06;;;;;;;6.97;1.92;;;9.10;99.90;;;;;;5024547;28;20106;-62
2021/11/05 09:13:33;;;;;;;4.57;0.90;;;9.20;99.90;;;;;;5036197;28;20029;-62
2021/11/05 09:15:59;;;;;;;4.97;1.33;;;9.20;99.90;;;;;;5040265;28;20041;-62
2021/11/05 09:18:25;;;;;;;5.82;1.10;;;9.30;99.90;;;;;;5036529;28;20400;-61
2021/11/05 09:20:51;;;;;;;4.18;1.63;;;9.40;99.90;;;;;;5038163;28;20037;-61
2021/11/05 09:23:17;;;;;;;3.92;1.02;;;9.60;99.90;;;;;;5039101;28;20228;-63
2021/11/05 09:25:42;;;;;;;3.35;0.88;;;9.70;99.90;;;;;;5037455;28;20127;-63
2021/11/05 09:28:09;;;;;;;5.18;1.33;;;9.80;99.90;;;;;;5036662;28;20033;-62
2021/11/05 09:30:34;;;;;;;11.20;1.42;;;9.90;99.90;;;;;;5039092;28;20052;-65
2021/11/05 09:33:00;;;;;;;1.95;0.93;;;9.90;99.90;;;;;;5036258;28;20041;-62
2021/11/05 09:35:26;;;;;;;4.35;0.50;;;10.10;99.90;;;;;;5039151;28;20143;-63
2021/11/05 09:37:53;;;;;;;8.30;0.70;;;10.30;99.90;;;;;;5038323;28;20029;-62
2021/11/05 09:40:21;;;;;;;3.13;0.68;;;10.40;99.90;;;;;;5037946;28;20496;-62
2021/11/05 09:42:49;;;;;;;6.18;1.25;;;10.40;99.90;;;;;;5016368;28;20063;-62
2021/11/05 09:45:17;;;;;;;8.52;1.55;;;10.40;99.90;;;;;;5038360;28;20071;-64
2021/11/05 09:47:44;;;;;;;5.07;0.65;;;10.50;99.90;;;;;;5036534;28;20047;-63
2021/11/05 09:50:12;;;;;;;3.45;0.38;;;10.70;99.90;;;;;;5041091;28;20037;-63
2021/11/05 09:52:39;;;;;;;6.40;0.82;;;10.80;99.90;;;;;;5037206;28;20040;-61
2021/11/05 09:55:05;;;;;;;2.40;0.30;;;11.00;99.90;;;;;;5037889;28;20421;-62
2021/11/05 09:57:31;;;;;;;4.55;0.40;;;11.10;99.90;;;;;;5039497;28;20043;-63
2021/11/05 09:59:57;;;;;;;3.70;0.45;;;11.30;99.90;;;;;;5018134;28;20026;-64
2021/11/05 10:02:24;;;;;;;7.45;0.90;;;11.30;99.90;;;;;;5039439;28;20044;-65
2021/11/05 10:04:51;;;;;;;8.63;0.50;;;11.30;99.90;;;;;;5039499;28;20038;-63
2021/11/05 10:07:17;;;;;;;3.15;0.25;;;11.30;99.90;;;;;;5037798;28;20040;-65
2021/11/05 10:09:53;;;;;;;2.67;0.30;;;11.40;99.90;;;;;;5036215;28;20021;-64
2021/11/05 10:12:22;;;;;;;2.80;0.52;;;11.40;99.90;;;;;;5038634;28;20033;-63
2021/11/05 10:15:01;;;;;;;1.55;0.38;;;11.40;99.90;;;;;;5035630;28;20029;-64
2021/11/05 10:17:27;;;;;;;5.20;0.22;;;11.40;99.90;;;;;;5039547;28;20460;-63
2021/11/05 10:20:06;;;;;;;3.65;0.35;;;11.40;99.90;;;;;;5017322;28;20064;-63
2021/11/05 10:22:43;;;;;;;2.90;0.13;;;11.30;99.90;;;;;;5040033;28;20033;-63
2021/11/05 10:25:24;;;;;;;4.32;0.05;;;11.10;99.90;;;;;;5037450;28;20037;-64
2021/11/05 10:28:05;;;;;;;;;;;11.00;99.90;;;;;;5038173;28;20580;-63
2021/11/05 10:30:33;;;;;;;3.78;0.20;;;10.90;99.90;;;;;;5039284;28;20380;-64
2021/11/05 10:33:01;;;;;;;1.15;0.40;;;10.80;99.90;;;;;;5035138;28;20521;-61
2021/11/05 10:35:28;;;;;;;1.45;0.40;;;10.70;99.90;;;;;;5038667;28;20489;-63
2021/11/05 10:38:04;;;;;;;2.88;0.20;;;10.60;99.90;;;;;;5038613;28;20048;-64
2021/11/05 10:40:37;;;;;;;2.05;0.45;;;10.60;99.90;;;;;;5039154;28;20025;-62
2021/11/05 10:43:04;;;;;;;1.38;0.10;;;10.80;99.90;;;;;;5035947;28;20049;-62
2021/11/05 10:45:31;;;;;;;4.25;0.30;;;10.90;99.90;;;;;;5038110;28;20029;-62
2021/11/05 10:47:58;;;;;;;1.83;0.75;;;11.00;99.90;;;;;;5036438;28;20511;-64
2021/11/05 10:50:23;;;;;;;2.05;0.20;;;11.10;99.90;;;;;;5036371;28;20026;-63
2021/11/05 10:53:09;;;;;;;4.93;0.43;;;11.20;99.90;;;;;;5037374;28;20036;-62
2021/11/05 10:55:49;;;;;;;4.45;0.30;;;11.60;99.90;;;;;;5040627;28;20040;-62
2021/11/05 10:58:17;;;;;;;2.25;0.20;;;11.90;99.90;;;;;;5036053;28;20218;-62
2021/11/05 11:00:43;;;;;;;7.45;0.40;;;12.10;99.90;;;;;;5036653;28;20042;-63
2021/11/05 11:03:16;;;;;;;2.42;0.57;;;12.20;99.90;;;;;;5036922;28;20044;-63
2021/11/05 11:05:43;;;;;;;2.05;0.20;;;12.10;99.90;;;;;;5035937;28;20580;-63
2021/11/05 11:08:17;;;;;;;2.22;0.20;;;11.90;99.90;;;;;;5036209;28;20044;-63
2021/11/05 11:10:43;;;;;;;1.48;0.35;;;11.80;99.90;;;;;;5036592;28;20512;-63
2021/11/05 11:13:30;;;;;;;1.67;0.15;;;11.50;99.90;;;;;;5036819;28;20040;-63
2021/11/05 11:15:56;;;;;;;1.95;0.20;;;11.50;99.90;;;;;;5037153;28;20473;-63
2021/11/05 11:18:22;;;;;;;1.38;0.32;;;11.40;99.90;;;;;;5043019;28;20033;-63
2021/11/05 11:20:49;;;;;;;4.28;0.22;;;11.50;99.90;;;;;;5036393;28;20029;-64
2021/11/05 11:23:14;;;;;;;2.80;0.20;;;11.50;99.90;;;;;;5039783;28;20037;-63
2021/11/05 11:25:41;;;;;;;0.45;0.10;;;11.60;99.90;;;;;;5020261;28;20458;-77
2021/11/05 11:28:07;;;;;;;3.65;0.50;;;11.70;99.90;;;;;;5038289;28;20521;-65
2021/11/05 11:30:33;;;;;;;1.95;0.13;;;11.80;99.90;;;;;;5036025;28;20040;-63
2021/11/05 11:32:59;;;;;;;0.65;0.10;;;11.90;99.90;;;;;;5033859;28;20045;-63
2021/11/05 11:35:25;;;;;;;0.45;0.10;;;11.90;99.90;;;;;;5039289;28;20048;-62
2021/11/05 11:37:51;;;;;;;3.35;0.20;;;12.00;99.90;;;;;;5036580;28;20502;-63
2021/11/05 11:40:17;;;;;;;2.78;0.57;;;12.00;99.90;;;;;;5016021;28;20099;-63
2021/11/05 11:42:43;;;;;;;1.58;0.00;;;12.00;99.90;;;;;;5017986;28;20481;-63
2021/11/05 11:45:13;;;;;;;1.08;0.10;;;12.00;99.90;;;;;;5034576;28;20030;-63
2021/11/05 11:47:44;;;;;;;1.70;0.20;;;12.00;99.90;;;;;;5033241;28;20033;-63
2021/11/05 11:50:22;;;;;;;0.93;0.30;;;11.90;99.90;;;;;;5032992;28;20079;-63
2021/11/05 11:52:57;;;;;;;1.30;0.10;;;12.10;99.90;;;;;;5035624;28;20048;-63
2021/11/05 11:55:23;;;;;;;0.98;0.10;;;11.90;99.90;;;;;;5048790;28;20029;-63
2021/11/05 11:57:48;;;;;;;3.20;0.17;;;11.90;99.90;;;;;;5036494;28;20060;-66
2021/11/05 12:00:22;;;;;;;2.90;0.20;;;11.80;99.90;;;;;;5033602;28;20124;-64
2021/11/05 12:02:49;;;;;;;2.65;0.57;;;11.80;99.90;;;;;;5036451;28;20033;-64
2021/11/05 12:05:21;;;;;;;5.53;0.40;;;11.70;99.90;;;;;;5034188;28;20033;-64
2021/11/05 12:08:11;;;;;;;2.80;0.30;;;11.80;99.90;;;;;;5032414;28;20087;-60
2021/11/05 12:10:37;;;;;;;1.10;0.22;;;11.80;99.90;;;;;;5035661;28;20039;-64
2021/11/05 12:13:32;;;;;;;1.10;0.10;;;11.90;99.90;;;;;;5032256;28;20041;-64
2021/11/05 12:16:10;;;;;;;1.60;0.20;;;12.10;99.90;;;;;;5037187;28;20045;-64
2021/11/05 12:18:54;;;;;;;4.93;0.13;;;12.20;99.90;;;;;;5037633;28;20045;-67
2021/11/05 12:21:20;;;;;;;2.85;0.10;;;12.30;99.90;;;;;;5041484;28;20048;-63
2021/11/05 12:24:06;;;;;;;1.10;0.35;;;12.30;99.90;;;;;;5037064;28;20033;-64
2021/11/05 12:26:52;;;;;;;3.25;0.30;;;12.30;99.90;;;;;;5038830;28;20060;-64
2021/11/05 12:29:32;;;;;;;2.50;0.17;;;12.30;99.90;;;;;;5041483;28;20450;-64
2021/11/05 12:32:17;;;;;;;2.13;0.30;;;12.30;99.90;;;;;;5052721;28;20114;-64
2021/11/05 12:34:48;;;;;;;1.00;0.10;;;12.40;99.90;;;;;;5031923;28;20080;-64
2021/11/05 12:37:28;;;;;;;1.80;0.22;;;12.50;99.90;;;;;;5033147;28;20122;-64
2021/11/05 12:39:54;;;;;;;5.75;0.40;;;12.40;99.90;;;;;;5030025;28;20396;-66
2021/11/05 12:42:20;;;;;;;3.83;0.20;;;12.40;99.90;;;;;;5032740;28;20079;-63
2021/11/05 12:44:55;;;;;;;1.17;0.40;;;12.40;99.90;;;;;;5035616;28;20034;-63
2021/11/05 12:47:50;;;;;;;5.82;0.85;;;12.30;99.90;;;;;;5031928;28;20585;-63
2021/11/05 12:50:20;;;;;;;2.60;0.20;;;12.20;99.90;;;;;;5032376;28;20052;-64
2021/11/05 12:52:51;;;;;;;2.67;0.20;;;12.00;99.90;;;;;;5020584;28;20075;-62
2021/11/05 12:55:17;;;;;;;5.40;0.35;;;11.80;99.90;;;;;;5034301;28;20180;-63